Startpagina
METAR-TAF:

METAR-TAF

Vliegvelden :

Farnborough Airport

Farnborough, Engeland

breedte: 51-17N, lengte: 000-46W, hoogte: 65 m

Actueel weer

Dit bericht is 29 minuten geleden gemaakt, om 19:50 UTC
Wind 12 kt uit het oosten
Temperatuur 17°C
Vochtigheid 45%
Druk 1022 hPa
Zicht 10 km of meer

METAR: EGLF 311950Z AUTO 08012KT 9999 NCD 17/05 Q1022

Tijdstip: 21:19 (20:19 UTC)

Verwachting

Dit bericht is 6 uur en het 18 minuten geleden gemaakt, om 14:01 UTC
Verwachting geldig van 31 om 15 UTC tot 31 om 19 UTC
Wind 14 kt uit het oosten
Zicht 10 km of meer
geen wolken onder 1500 m en geen cumulonimbus
Kans 40% :
Tijdelijke
van 31 om 15 UTC tot 31 om 19 UTC
Wind 16 kt uit het oostnoordoosten met uitschieters tot 26 kt

TAF: EGLF 311401Z 3115/3119 08014KT CAVOK PROB40 TEMPO 3115/3119 07016G26KT

Waarnemingen en weersverwachtingen van meer dan 4000 vliegvelden (METAR en TAF).

De beschikbare stations zijn de gele en rode punten op de kaart.

Ga met uw muis naar het station om de naam te zien.

Klik dan om waarnemingen en weersverwachtingen te zien.

kaart wijzigen: klik op de groene knoppen met een zwart kruis om in te zoomen, op de groene knop met een streepje om uit te zoomen of op de groene pijlen voor aangrenzende kaarten.


METAR-TAF: